Airfield :
LOGIN :

Register | Disclaimer

   EN    FR    IT 

 










Legend :    VFR   Marginal VFR   IFR   Intensive IFR   Very Intensive IFR
Visi :
Ceiling :
>= 8 km
>= 3000ft
5 to 8 km
1000 to 3000 ft
1500m to 5 km
500 to 1000 ft
800 to 1500m
200 to 500 ft
< 800m
< 200 ft
Symbols :   Thunderstorms  Fog  Heavy snow  Heavy precipitations  Wind > 20 kt
SIGMETs :     Misc.  Thunderstorms  Icing  Turbulence  Mountain Waves  Volcanic Ashes






- Airport Elevation : 1 ft


EGCK - Caernarfon

CURRENT METAR :
  • 270620Z AUTO 17015KT 8000 -RA BKN006/// OVC017/// 10/09 Q0992

EXPIRED METARs :
  • 270550Z AUTO 18014KT 9999 -RA FEW009/// OVC014/// 09/08 Q0993
  • 270520Z AUTO 18014KT 9999 SCT010/// OVC022/// 10/08 Q0994
  • 270450Z AUTO 17009KT 9999 -RA FEW020/// BKN029/// 09/08 Q0994
  • 270420Z AUTO 19010KT 9999 -RA BKN035/// 10/07 Q0995
  • 270350Z AUTO 18010KT 9999 BKN030/// OVC046/// 10/05 Q0995

TAF TAF EGCK
Valid from the 27 at 06:00 until the 27 at 15:00 UTC


270500Z 2706/2715 19012KT 9999 SCT025
TEMPO 2706/2712 8000 -RA BKN012
PROB30
TEMPO 2706/2710 4000 RA BKN008
BECMG 2711/2714 26015KT
PROB30
TEMPO 2714/2715 28018G30KT 7000 SHRA



MET'MAP, your aeronautical weather chart ! - Copyright ORBIFLY December 2007 - Disclaimer

ORBIFLY MET'MAP TEAM :

Programming & Development : Alexandra Zaïnal
Concept & original design : Baudouin d'Aumeries
Assistance for programming : Marc-Olivier Méhu
Technical & hardware support : Manuel Goepfert

Contact : metmap@orbifly.com




SOURCES & CREDITS :

   NOAA